createdAt,value
2018-06-18T00:01:34.468Z,16.15
2018-06-18T00:04:02.979Z,16.12
2018-06-18T00:06:31.423Z,16.30
2018-06-18T00:09:00.009Z,16.06
2018-06-18T00:11:28.575Z,16.18
2018-06-18T00:13:57.005Z,16.22
2018-06-18T00:16:25.427Z,16.44
2018-06-18T00:18:53.916Z,16.39
2018-06-18T00:21:22.707Z,16.40
2018-06-18T00:23:51.087Z,16.30
2018-06-18T00:26:19.591Z,16.40
2018-06-18T00:28:48.003Z,16.40
2018-06-18T00:31:16.479Z,16.28
2018-06-18T00:33:45.157Z,16.38
2018-06-18T00:36:13.571Z,16.33
2018-06-18T00:38:42.056Z,16.53
2018-06-18T00:41:10.568Z,16.28
2018-06-18T00:43:39.046Z,16.03
2018-06-18T00:46:07.732Z,15.85
2018-06-18T00:48:36.142Z,16.08
2018-06-18T00:51:04.668Z,16.22
2018-06-18T00:53:33.139Z,16.05
2018-06-18T00:56:15.600Z,16.02
2018-06-18T00:58:44.303Z,15.90
2018-06-18T01:01:13.275Z,16.10
2018-06-18T01:03:42.011Z,16.17
2018-06-18T01:06:10.447Z,16.34
2018-06-18T01:08:38.955Z,16.44
2018-06-18T01:11:07.474Z,16.41
2018-06-18T01:13:35.867Z,16.46
2018-06-18T01:16:04.627Z,16.34
2018-06-18T01:18:33.895Z,16.61
2018-06-18T01:21:02.385Z,16.32
2018-06-18T01:25:43.423Z,16.44
2018-06-18T01:28:11.959Z,16.23
2018-06-18T01:30:40.439Z,16.17
2018-06-18T01:33:08.867Z,16.33
2018-06-18T01:35:37.303Z,16.38
2018-06-18T01:38:05.960Z,16.51
2018-06-18T01:40:34.371Z,16.46
2018-06-18T01:43:02.901Z,16.28
2018-06-18T01:45:31.575Z,16.31
2018-06-18T01:48:00.052Z,16.40
2018-06-18T01:50:28.479Z,16.61
2018-06-18T01:52:56.887Z,16.58
2018-06-18T01:55:25.288Z,16.59
2018-06-18T01:57:53.823Z,16.75
2018-06-18T02:00:22.256Z,16.65
2018-06-18T02:02:50.643Z,16.78
2018-06-18T02:05:19.179Z,16.80
2018-06-18T02:07:47.653Z,16.58
2018-06-18T02:10:16.128Z,16.82
2018-06-18T02:12:44.612Z,16.34
2018-06-18T02:15:13.019Z,15.86
2018-06-18T02:17:41.559Z,15.78
2018-06-18T02:20:10.020Z,15.71
2018-06-18T02:22:38.527Z,15.45
2018-06-18T02:25:07.009Z,15.53
2018-06-18T02:27:40.719Z,15.39
2018-06-18T02:30:14.495Z,15.35
2018-06-18T02:32:48.279Z,15.42
2018-06-18T02:35:21.927Z,15.26
2018-06-18T02:37:55.579Z,15.03
2018-06-18T02:40:29.356Z,14.86
2018-06-18T02:42:57.803Z,14.81
2018-06-18T02:45:26.236Z,14.73
2018-06-18T02:47:54.961Z,14.92
2018-06-18T02:50:23.470Z,14.90
2018-06-18T02:52:51.963Z,14.98
2018-06-18T02:55:20.475Z,15.12
2018-06-18T02:57:48.984Z,15.24
2018-06-18T03:00:17.432Z,15.13
2018-06-18T03:02:45.934Z,15.17
2018-06-18T03:05:14.671Z,15.15
2018-06-18T03:07:43.150Z,15.22
2018-06-18T03:10:11.651Z,15.13
2018-06-18T03:12:40.295Z,15.34
2018-06-18T03:15:08.731Z,15.10
2018-06-18T03:17:37.138Z,15.33
2018-06-18T03:20:10.951Z,15.41
2018-06-18T03:22:44.674Z,15.49
2018-06-18T03:25:18.393Z,15.56
2018-06-18T03:27:52.024Z,15.47
2018-06-18T03:30:20.469Z,15.60
2018-06-18T03:32:49.975Z,15.57
2018-06-18T03:35:18.474Z,15.39
2018-06-18T03:37:46.971Z,15.45
2018-06-18T03:40:15.469Z,15.63
2018-06-18T03:42:44.723Z,15.60
2018-06-18T03:45:34.155Z,15.38
2018-06-18T03:48:06.803Z,15.74
2018-06-18T03:50:35.565Z,15.56
2018-06-18T03:53:04.131Z,15.63
2018-06-18T03:55:35.911Z,15.47
2018-06-18T03:58:08.691Z,15.48
2018-06-18T04:01:05.743Z,15.64
2018-06-18T04:03:39.499Z,15.61
2018-06-18T04:06:13.211Z,15.67
2018-06-18T04:08:41.728Z,15.63
2018-06-18T04:11:15.476Z,15.44
2018-06-18T04:13:44.112Z,15.31
2018-06-18T04:16:12.719Z,15.37
2018-06-18T04:18:46.419Z,15.07
2018-06-18T04:21:14.839Z,15.26
2018-06-18T04:23:43.323Z,15.33
2018-06-18T04:26:11.835Z,15.40
2018-06-18T04:28:40.307Z,15.79
2018-06-18T04:31:08.852Z,16.45
2018-06-18T04:33:40.076Z,17.21
2018-06-18T04:36:08.608Z,18.11
2018-06-18T04:38:37.040Z,18.49
2018-06-18T04:41:05.464Z,19.02
2018-06-18T04:44:41.053Z,19.19
2018-06-18T04:47:14.791Z,19.93
2018-06-18T04:49:48.416Z,19.91
2018-06-18T04:52:16.907Z,20.31
2018-06-18T04:54:45.331Z,20.40
2018-06-18T04:57:13.753Z,20.63
2018-06-18T04:59:45.468Z,20.66
2018-06-18T05:02:13.847Z,20.03
2018-06-18T05:04:42.292Z,20.29
2018-06-18T05:07:10.805Z,20.31
2018-06-18T05:09:48.403Z,20.99
2018-06-18T05:12:16.947Z,21.26
2018-06-18T05:14:45.327Z,21.45
2018-06-18T05:17:13.959Z,21.30
2018-06-18T05:19:42.451Z,21.55
2018-06-18T05:22:10.864Z,21.61
2018-06-18T05:24:39.363Z,21.94
2018-06-18T05:27:10.776Z,22.16
2018-06-18T05:29:39.695Z,22.15
2018-06-18T05:32:08.099Z,22.15
2018-06-18T05:34:36.520Z,21.77
2018-06-18T05:38:11.587Z,21.91
2018-06-18T05:40:40.051Z,22.13
2018-06-18T05:43:08.726Z,21.30
2018-06-18T05:45:37.095Z,21.28
2018-06-18T05:48:05.525Z,21.54
2018-06-18T05:50:33.981Z,21.77
2018-06-18T05:53:02.420Z,21.95
2018-06-18T05:55:31.291Z,22.01
2018-06-18T05:57:59.835Z,22.47
2018-06-18T06:00:28.319Z,22.27
2018-06-18T06:02:56.814Z,22.51
2018-06-18T06:05:25.204Z,22.61
2018-06-18T06:07:53.972Z,22.35
2018-06-18T06:10:22.499Z,22.25
2018-06-18T06:12:51.016Z,22.50
2018-06-18T06:15:19.498Z,23.19
2018-06-18T06:17:47.915Z,22.46
2018-06-18T06:20:16.487Z,22.78
2018-06-18T06:22:44.951Z,22.93
2018-06-18T06:25:13.499Z,22.67
2018-06-18T06:27:41.951Z,22.90
2018-06-18T06:30:10.472Z,22.60
2018-06-18T06:32:38.944Z,23.22
2018-06-18T06:35:27.264Z,23.18
2018-06-18T06:37:56.463Z,23.15
2018-06-18T06:40:25.658Z,22.81
2018-06-18T06:42:54.244Z,23.48
2018-06-18T06:45:22.975Z,23.30
2018-06-18T06:47:51.654Z,23.33
2018-06-18T06:50:20.119Z,23.04
2018-06-18T06:52:48.626Z,23.18
2018-06-18T06:55:17.111Z,22.94
2018-06-18T06:57:45.632Z,23.08
2018-06-18T07:00:14.560Z,23.40
2018-06-18T07:02:42.955Z,23.47
2018-06-18T07:05:11.347Z,23.64
2018-06-18T07:07:39.833Z,23.36
2018-06-18T07:10:08.659Z,23.43
2018-06-18T07:12:37.280Z,23.70
2018-06-18T07:15:06.200Z,23.50
2018-06-18T07:17:34.827Z,24.04
2018-06-18T07:20:03.271Z,23.99
2018-06-18T07:22:31.797Z,23.63
2018-06-18T07:25:00.227Z,24.07
2018-06-18T07:27:28.827Z,23.85
2018-06-18T07:29:57.223Z,23.99
2018-06-18T07:32:25.711Z,24.16
2018-06-18T07:34:54.300Z,23.66
2018-06-18T07:37:22.681Z,23.80
2018-06-18T07:39:51.131Z,23.84
2018-06-18T07:42:19.591Z,24.22
2018-06-18T07:44:48.203Z,24.10
2018-06-18T07:47:16.700Z,23.51
2018-06-18T07:49:45.343Z,23.94
2018-06-18T07:52:13.839Z,23.76
2018-06-18T07:54:42.267Z,24.29
2018-06-18T07:57:10.760Z,23.87
2018-06-18T07:59:39.445Z,24.09
2018-06-18T08:02:07.987Z,24.27
2018-06-18T08:04:36.419Z,24.16
2018-06-18T08:07:04.831Z,24.30
2018-06-18T08:09:33.484Z,25.09
2018-06-18T08:12:01.951Z,24.54
2018-06-18T08:14:30.435Z,24.36
2018-06-18T08:16:58.960Z,24.18
2018-06-18T08:19:27.423Z,23.78
2018-06-18T08:21:55.795Z,23.78
2018-06-18T08:24:24.307Z,23.88
2018-06-18T08:26:52.786Z,24.29
2018-06-18T08:29:21.327Z,24.40
2018-06-18T08:31:49.768Z,24.19
2018-06-18T08:34:18.187Z,24.40
2018-06-18T08:36:46.696Z,23.78
2018-06-18T08:39:15.079Z,23.80
2018-06-18T08:41:43.587Z,23.78
2018-06-18T08:44:12.050Z,24.40
2018-06-18T08:46:40.551Z,24.42
2018-06-18T08:49:09.680Z,24.81
2018-06-18T08:51:43.295Z,24.94
2018-06-18T08:54:17.015Z,25.12
2018-06-18T08:56:50.759Z,24.68
2018-06-18T08:59:24.432Z,24.72
2018-06-18T09:01:52.986Z,25.08
2018-06-18T09:04:26.733Z,24.74
2018-06-18T09:06:59.347Z,24.65
2018-06-18T09:09:27.891Z,24.95
2018-06-18T09:11:56.503Z,24.87
2018-06-18T09:14:24.903Z,25.43
2018-06-18T09:16:53.431Z,25.68
2018-06-18T09:19:21.847Z,25.46
2018-06-18T09:21:50.467Z,25.44
2018-06-18T09:24:21.314Z,25.43
2018-06-18T09:26:52.620Z,25.80
2018-06-18T09:29:21.031Z,25.10
2018-06-18T09:31:49.471Z,25.19
2018-06-18T09:34:18.028Z,24.39
2018-06-18T09:36:46.428Z,25.01
2018-06-18T09:39:14.876Z,24.87
2018-06-18T09:41:43.249Z,24.77
2018-06-18T09:44:11.643Z,24.45
2018-06-18T09:46:40.152Z,24.62
2018-06-18T09:49:13.793Z,24.91
2018-06-18T09:51:47.550Z,24.78
2018-06-18T09:54:21.299Z,24.27
2018-06-18T09:56:55.092Z,24.40
2018-06-18T09:59:38.911Z,24.38
2018-06-18T10:02:07.879Z,24.35
2018-06-18T10:04:36.352Z,24.40
2018-06-18T10:07:04.887Z,24.34
2018-06-18T10:09:33.327Z,23.49
2018-06-18T10:12:02.016Z,24.25
2018-06-18T10:14:30.491Z,23.98
2018-06-18T10:16:58.931Z,24.23
2018-06-18T10:19:27.423Z,24.83
2018-06-18T10:21:55.928Z,24.55
2018-06-18T10:24:24.605Z,24.90
2018-06-18T10:26:53.091Z,24.63
2018-06-18T10:29:21.517Z,24.47
2018-06-18T10:31:50.010Z,24.26
2018-06-18T10:34:23.855Z,24.54
2018-06-18T10:36:57.735Z,24.31
2018-06-18T10:39:31.335Z,24.55
2018-06-18T10:42:05.179Z,24.69
2018-06-18T10:44:33.659Z,24.70
2018-06-18T10:47:02.328Z,24.97
2018-06-18T10:49:30.751Z,24.89
2018-06-18T10:51:59.235Z,24.58
2018-06-18T10:54:27.758Z,24.65
2018-06-18T10:56:56.311Z,24.32
2018-06-18T10:59:24.853Z,23.90
2018-06-18T11:01:53.342Z,24.08
2018-06-18T11:04:27.315Z,24.44
2018-06-18T11:06:55.691Z,24.40
2018-06-18T11:09:24.063Z,25.10
2018-06-18T11:11:53.079Z,25.15
2018-06-18T11:14:21.523Z,24.68
2018-06-18T11:17:57.475Z,24.60
2018-06-18T11:20:31.159Z,24.27
2018-06-18T11:23:05.133Z,24.33
2018-06-18T11:26:36.591Z,24.66
2018-06-18T11:29:05.255Z,25.16
2018-06-18T11:31:33.732Z,25.95
2018-06-18T11:34:02.407Z,25.38
2018-06-18T11:36:30.912Z,25.64
2018-06-18T11:38:59.311Z,26.23
2018-06-18T11:41:28.059Z,25.45
2018-06-18T11:43:56.467Z,25.59
2018-06-18T11:46:25.055Z,25.39
2018-06-18T11:48:53.568Z,25.27
2018-06-18T11:51:22.076Z,25.93
2018-06-18T11:53:50.612Z,25.56
2018-06-18T11:56:19.051Z,25.81
2018-06-18T11:58:52.890Z,26.05
2018-06-18T12:01:26.705Z,25.61
2018-06-18T12:04:00.495Z,25.68
2018-06-18T12:06:34.071Z,25.95
2018-06-18T12:09:07.816Z,25.76
2018-06-18T12:11:36.377Z,25.42
2018-06-18T12:14:04.828Z,25.81
2018-06-18T12:16:36.471Z,25.66
2018-06-18T12:19:05.750Z,25.56
2018-06-18T12:21:34.647Z,25.71
2018-06-18T12:24:03.095Z,26.10
2018-06-18T12:26:32.015Z,25.86
2018-06-18T12:29:00.508Z,25.97
2018-06-18T12:31:28.999Z,26.33
2018-06-18T12:33:57.776Z,25.87
2018-06-18T12:36:26.279Z,25.63
2018-06-18T12:38:54.711Z,25.85
2018-06-18T12:41:23.169Z,25.75
2018-06-18T12:43:55.515Z,25.16
2018-06-18T12:46:29.218Z,25.16
2018-06-18T12:49:02.917Z,25.25
2018-06-18T12:51:36.544Z,25.07
2018-06-18T12:54:10.147Z,25.81
2018-06-18T12:56:43.957Z,25.56
2018-06-18T12:59:12.415Z,25.83
2018-06-18T13:01:46.471Z,26.13
2018-06-18T13:04:14.946Z,25.95
2018-06-18T13:06:43.359Z,25.83
2018-06-18T13:09:11.767Z,25.53
2018-06-18T13:11:40.711Z,26.02
2018-06-18T13:14:09.103Z,25.84
2018-06-18T13:16:37.503Z,26.05
2018-06-18T13:19:06.160Z,26.28
2018-06-18T13:21:34.604Z,26.55
2018-06-18T13:24:03.284Z,26.36
2018-06-18T13:26:31.696Z,26.05
2018-06-18T13:29:00.150Z,26.12
2018-06-18T13:31:28.727Z,25.69
2018-06-18T13:33:57.103Z,26.11
2018-06-18T13:36:25.798Z,26.13
2018-06-18T13:38:59.380Z,25.84
2018-06-18T13:41:33.039Z,25.94
2018-06-18T13:44:06.823Z,25.66
2018-06-18T13:46:40.620Z,26.15
2018-06-18T13:49:09.026Z,25.99
2018-06-18T13:51:37.451Z,26.04
2018-06-18T13:54:05.944Z,25.90
2018-06-18T13:56:34.411Z,26.46
2018-06-18T13:59:02.855Z,25.94
2018-06-18T14:01:31.283Z,26.41
2018-06-18T14:03:59.713Z,26.24
2018-06-18T14:06:28.331Z,26.60
2018-06-18T14:08:56.759Z,26.31
2018-06-18T14:11:25.472Z,25.81
2018-06-18T14:13:54.013Z,25.95
2018-06-18T14:16:22.489Z,26.02
2018-06-18T14:18:50.979Z,25.94
2018-06-18T14:21:19.396Z,25.88
2018-06-18T14:23:48.087Z,25.67
2018-06-18T14:26:16.552Z,25.90
2018-06-18T14:28:44.987Z,25.88
2018-06-18T14:31:18.642Z,25.74
2018-06-18T14:33:52.343Z,25.35
2018-06-18T14:36:26.124Z,25.54
2018-06-18T14:38:59.891Z,26.01
2018-06-18T14:41:28.304Z,25.66
2018-06-18T14:43:56.705Z,25.30
2018-06-18T14:46:25.467Z,25.46
2018-06-18T14:48:53.942Z,25.64
2018-06-18T14:51:22.395Z,25.55
2018-06-18T14:53:50.811Z,25.81
2018-06-18T14:56:24.176Z,25.31
2018-06-18T14:59:05.191Z,25.25
2018-06-18T15:01:33.667Z,25.69
2018-06-18T15:04:02.208Z,24.88
2018-06-18T15:06:30.615Z,25.23
2018-06-18T15:08:59.240Z,25.12
2018-06-18T15:11:27.651Z,25.21
2018-06-18T15:13:56.279Z,25.12
2018-06-18T15:16:30.421Z,25.44
2018-06-18T15:19:00.016Z,24.93
2018-06-18T15:21:29.699Z,25.32
2018-06-18T15:23:59.451Z,25.19
2018-06-18T15:26:28.243Z,25.35
2018-06-18T15:28:56.743Z,24.86
2018-06-18T15:31:25.217Z,25.27
2018-06-18T15:33:53.643Z,25.41
2018-06-18T15:36:22.183Z,24.88
2018-06-18T15:38:50.628Z,24.80
2018-06-18T15:41:19.059Z,24.36
2018-06-18T15:43:47.536Z,24.78
2018-06-18T15:46:16.459Z,24.65
2018-06-18T15:48:44.920Z,24.81
2018-06-18T15:51:13.379Z,24.44
2018-06-18T15:53:41.879Z,24.75
2018-06-18T15:56:10.411Z,24.91
2018-06-18T15:58:39.027Z,24.79
2018-06-18T16:01:07.439Z,25.06
2018-06-18T16:03:35.847Z,25.00
2018-06-18T16:06:04.407Z,25.12
2018-06-18T16:08:32.799Z,25.18
2018-06-18T16:11:01.399Z,24.78
2018-06-18T16:13:29.904Z,24.72
2018-06-18T16:15:58.397Z,24.91
2018-06-18T16:18:26.840Z,24.84
2018-06-18T16:20:55.242Z,24.78
2018-06-18T16:23:23.712Z,25.04
2018-06-18T16:25:52.184Z,25.20
2018-06-18T16:28:20.596Z,24.78
2018-06-18T16:30:49.079Z,24.52
2018-06-18T16:33:17.598Z,24.86
2018-06-18T16:35:46.233Z,24.48
2018-06-18T16:38:14.668Z,24.72
2018-06-18T16:40:43.171Z,24.68
2018-06-18T16:43:11.674Z,24.44
2018-06-18T16:45:40.207Z,24.53
2018-06-18T16:48:08.815Z,24.85
2018-06-18T16:50:37.265Z,24.43
2018-06-18T16:53:05.958Z,24.35
2018-06-18T16:55:34.444Z,24.55
2018-06-18T16:58:03.171Z,24.77
2018-06-18T17:00:32.047Z,24.75
2018-06-18T17:03:00.435Z,24.57
2018-06-18T17:05:28.914Z,24.48
2018-06-18T17:07:57.424Z,24.16
2018-06-18T17:10:25.920Z,24.13
2018-06-18T17:12:54.562Z,24.57
2018-06-18T17:15:23.116Z,24.05
2018-06-18T17:17:51.611Z,24.15
2018-06-18T17:20:20.024Z,24.11
2018-06-18T17:22:48.408Z,23.92
2018-06-18T17:25:17.254Z,23.97
2018-06-18T17:27:45.783Z,24.39
2018-06-18T17:30:14.199Z,24.49
2018-06-18T17:32:42.682Z,24.23
2018-06-18T17:35:11.071Z,24.04
2018-06-18T17:37:39.749Z,24.13
2018-06-18T17:40:08.299Z,23.94
2018-06-18T17:42:36.707Z,24.04
2018-06-18T17:45:05.249Z,23.84
2018-06-18T17:47:33.759Z,23.87
2018-06-18T17:50:02.281Z,23.59
2018-06-18T17:52:30.694Z,23.50
2018-06-18T17:54:59.200Z,23.63
2018-06-18T17:57:27.631Z,23.48
2018-06-18T17:59:56.063Z,23.85
2018-06-18T18:02:24.595Z,23.56
2018-06-18T18:04:56.718Z,23.57
2018-06-18T18:07:26.347Z,23.69
2018-06-18T18:09:54.907Z,24.04
2018-06-18T18:12:23.364Z,23.97
2018-06-18T18:14:51.908Z,23.77
2018-06-18T18:17:20.463Z,23.68
2018-06-18T18:19:49.280Z,24.25
2018-06-18T18:22:17.780Z,24.21
2018-06-18T18:24:46.349Z,23.79
2018-06-18T18:27:14.995Z,23.66
2018-06-18T18:29:43.443Z,24.30
2018-06-18T18:32:11.983Z,23.75
2018-06-18T18:34:41.319Z,23.53
2018-06-18T18:37:09.736Z,23.59
2018-06-18T18:39:38.257Z,23.60
2018-06-18T18:42:06.791Z,23.55
2018-06-18T18:44:35.490Z,23.59
2018-06-18T18:47:03.980Z,23.62
2018-06-18T18:49:32.443Z,23.49
2018-06-18T18:52:00.940Z,23.61
2018-06-18T18:55:42.906Z,23.88
2018-06-18T18:58:23.260Z,23.28
2018-06-18T19:00:52.368Z,23.48
2018-06-18T19:03:22.808Z,23.22
2018-06-18T19:05:51.980Z,22.98
2018-06-18T19:08:28.791Z,23.24
2018-06-18T19:10:59.216Z,23.05
2018-06-18T19:13:31.634Z,22.96
2018-06-18T19:16:00.487Z,22.80
2018-06-18T19:18:29.559Z,22.65
2018-06-18T19:21:08.424Z,22.64
2018-06-18T19:23:37.038Z,22.71
2018-06-18T19:26:05.748Z,22.58
2018-06-18T19:28:35.050Z,22.58
2018-06-18T19:31:09.539Z,22.47
2018-06-18T19:34:45.215Z,22.30
2018-06-18T19:37:13.735Z,22.35
2018-06-18T19:39:44.607Z,21.99
2018-06-18T19:42:13.960Z,21.80
2018-06-18T19:44:43.613Z,21.70
2018-06-18T19:47:33.585Z,21.75
2018-06-18T19:50:01.996Z,21.73
2018-06-18T19:52:30.520Z,21.51
2018-06-18T19:55:10.599Z,21.57
2018-06-18T19:57:39.014Z,21.52
2018-06-18T20:00:07.509Z,21.39
2018-06-18T20:02:36.020Z,21.42
2018-06-18T20:05:09.880Z,21.31
2018-06-18T20:07:40.744Z,21.42
2018-06-18T20:10:09.232Z,21.39
2018-06-18T20:12:37.696Z,21.42
2018-06-18T20:15:06.333Z,21.23
2018-06-18T20:17:34.799Z,21.15
2018-06-18T20:20:03.308Z,20.98
2018-06-18T20:22:31.759Z,20.85
2018-06-18T20:25:00.300Z,21.05
2018-06-18T20:27:28.768Z,21.01
2018-06-18T20:29:57.255Z,20.99
2018-06-18T20:32:25.947Z,20.87
2018-06-18T20:34:54.647Z,20.56
2018-06-18T20:37:23.144Z,20.52
2018-06-18T20:39:51.579Z,20.51
2018-06-18T20:42:20.255Z,20.61
2018-06-18T20:44:48.695Z,20.60
2018-06-18T20:47:17.190Z,20.59
2018-06-18T20:49:45.603Z,20.52
2018-06-18T20:52:14.156Z,20.51
2018-06-18T20:54:42.598Z,20.41
2018-06-18T20:57:11.487Z,20.23
2018-06-18T20:59:39.995Z,20.26
2018-06-18T21:02:08.511Z,20.24
2018-06-18T21:04:36.996Z,20.17
2018-06-18T21:07:05.693Z,20.05
2018-06-18T21:09:34.176Z,19.97
2018-06-18T21:12:02.704Z,19.63
2018-06-18T21:14:31.180Z,19.41
2018-06-18T21:16:59.675Z,19.29
2018-06-18T21:19:28.196Z,19.58
2018-06-18T21:21:56.831Z,19.73
2018-06-18T21:24:25.251Z,19.80
2018-06-18T21:26:53.649Z,19.70
2018-06-18T21:29:22.138Z,19.70
2018-06-18T21:31:50.679Z,19.72
2018-06-18T21:34:19.499Z,19.79
2018-06-18T21:36:48.031Z,19.79
2018-06-18T21:39:16.520Z,19.71
2018-06-18T21:41:45.020Z,19.75
2018-06-18T21:44:18.616Z,19.81
2018-06-18T21:46:47.035Z,19.78
2018-06-18T21:49:15.498Z,19.91
2018-06-18T21:51:44.080Z,19.79
2018-06-18T21:54:12.507Z,19.67
2018-06-18T21:56:40.947Z,19.25
2018-06-18T21:59:09.391Z,19.11
2018-06-18T22:01:42.696Z,18.72
2018-06-18T22:04:11.355Z,18.75
2018-06-18T22:06:39.827Z,18.30
2018-06-18T22:09:16.648Z,18.44
2018-06-18T22:11:48.208Z,18.25
2018-06-18T22:14:16.791Z,18.06
2018-06-18T22:16:45.305Z,18.04
2018-06-18T22:19:13.671Z,18.16
2018-06-18T22:21:42.115Z,18.09
2018-06-18T22:24:10.563Z,18.09
2018-06-18T22:26:39.111Z,18.09
2018-06-18T22:29:07.907Z,18.02
2018-06-18T22:31:36.559Z,17.90
2018-06-18T22:34:05.099Z,17.79
2018-06-18T22:36:33.539Z,17.86
2018-06-18T22:39:02.168Z,17.85
2018-06-18T22:41:30.682Z,17.84
2018-06-18T22:43:59.207Z,17.72
2018-06-18T22:46:28.147Z,17.61
2018-06-18T22:48:56.568Z,17.37
2018-06-18T22:51:25.051Z,17.37
2018-06-18T22:53:53.594Z,17.34
2018-06-18T22:56:22.060Z,17.37
2018-06-18T22:58:50.559Z,17.27
2018-06-18T23:01:19.044Z,17.23
2018-06-18T23:03:47.547Z,17.43
2018-06-18T23:06:16.059Z,17.14
2018-06-18T23:08:44.511Z,17.26
2018-06-18T23:11:13.042Z,17.23
2018-06-18T23:13:41.547Z,17.00
2018-06-18T23:16:10.787Z,17.34
2018-06-18T23:18:39.213Z,16.99
2018-06-18T23:21:07.681Z,16.71
2018-06-18T23:23:36.239Z,16.74
2018-06-18T23:26:04.807Z,16.88
2018-06-18T23:28:37.523Z,16.95
2018-06-18T23:31:06.193Z,17.13
2018-06-18T23:33:34.703Z,17.05
2018-06-18T23:36:03.423Z,17.17
2018-06-18T23:38:31.983Z,17.22
2018-06-18T23:41:00.851Z,17.23
2018-06-18T23:43:29.311Z,17.02
2018-06-18T23:45:58.067Z,17.02
2018-06-18T23:48:26.569Z,16.96
2018-06-18T23:50:55.169Z,16.96
2018-06-18T23:53:23.591Z,16.86
2018-06-18T23:55:52.076Z,17.01
2018-06-18T23:58:20.562Z,17.27
